sensor_id;sensor_type;location;lat;lon;timestamp;pressure;altitude;pressure_sealevel;temperature;humidity
73306;BME280;61530;51.158;0.880;2023-02-12T00:00:55;1034.8;;;7.125;33.1562
73306;BME280;61530;51.158;0.880;2023-02-12T00:01:58;1034.78;;;7.0625;32.8066
73306;BME280;61530;51.158;0.880;2023-02-12T00:03:03;1034.77;;;7.0;32.9279
73306;BME280;61530;51.158;0.880;2023-02-12T00:04:06;1034.79;;;7.0625;33.0313
73306;BME280;61530;51.158;0.880;2023-02-12T00:05:11;1034.81;;;7.0625;33.3653
73306;BME280;61530;51.158;0.880;2023-02-12T00:06:14;1034.79;;;7.0625;33.1818
73306;BME280;61530;51.158;0.880;2023-02-12T00:07:19;1034.86;;;7.0625;33.4604
73306;BME280;61530;51.158;0.880;2023-02-12T00:08:22;1034.87;;;7.0625;33.1688
73306;BME280;61530;51.158;0.880;2023-02-12T00:09:27;1034.88;;;7.125;33.0121
73306;BME280;61530;51.158;0.880;2023-02-12T00:10:30;1034.86;;;7.0625;32.6534
73306;BME280;61530;51.158;0.880;2023-02-12T00:11:35;1034.86;;;7.0;32.8265
73306;BME280;61530;51.158;0.880;2023-02-12T00:12:38;1034.85;;;7.0625;32.6648
73306;BME280;61530;51.158;0.880;2023-02-12T00:13:43;1034.8;;;7.0;32.6761
73306;BME280;61530;51.158;0.880;2023-02-12T00:14:46;1034.82;;;7.0625;32.5015
73306;BME280;61530;51.158;0.880;2023-02-12T00:15:51;1034.81;;;7.0625;32.1456
73306;BME280;61530;51.158;0.880;2023-02-12T00:16:54;1034.82;;;7.0;32.7341
73306;BME280;61530;51.158;0.880;2023-02-12T00:17:59;1034.8;;;7.0625;32.5744
73306;BME280;61530;51.158;0.880;2023-02-12T00:19:03;1034.8;;;7.0;32.9598
73306;BME280;61530;51.158;0.880;2023-02-12T00:20:08;1034.8;;;7.0;33.1291
73306;BME280;61530;51.158;0.880;2023-02-12T00:21:11;1034.79;;;7.0;33.5402
73306;BME280;61530;51.158;0.880;2023-02-12T00:22:15;1034.81;;;6.9375;33.6033
73306;BME280;61530;51.158;0.880;2023-02-12T00:23:18;1034.81;;;6.9375;33.4053
73306;BME280;61530;51.158;0.880;2023-02-12T00:24:23;1034.83;;;6.9375;33.0399
73306;BME280;61530;51.158;0.880;2023-02-12T00:25:26;1034.84;;;7.0;32.3059
73306;BME280;61530;51.158;0.880;2023-02-12T00:26:31;1034.87;;;7.0;32.6637
73306;BME280;61530;51.158;0.880;2023-02-12T00:27:35;1034.88;;;7.0625;33.1964
73306;BME280;61530;51.158;0.880;2023-02-12T00:28:39;1034.86;;;7.0;33.0284
73306;BME280;61530;51.158;0.880;2023-02-12T00:29:42;1034.86;;;7.0625;32.9811
73306;BME280;61530;51.158;0.880;2023-02-12T00:30:47;1034.86;;;7.0625;32.9666
73306;BME280;61530;51.158;0.880;2023-02-12T00:31:50;1034.82;;;7.0625;33.2837
73306;BME280;61530;51.158;0.880;2023-02-12T00:32:55;1034.83;;;7.125;32.9413
73306;BME280;61530;51.158;0.880;2023-02-12T00:33:59;1034.76;;;7.0625;33.4108
73306;BME280;61530;51.158;0.880;2023-02-12T00:35:03;1034.72;;;6.9375;33.4172
73306;BME280;61530;51.158;0.880;2023-02-12T00:36:07;1034.74;;;7.125;33.6132
73306;BME280;61530;51.158;0.880;2023-02-12T00:37:11;1034.76;;;7.125;33.2448
73306;BME280;61530;51.158;0.880;2023-02-12T00:38:14;1034.76;;;7.125;33.7067
73306;BME280;61530;51.158;0.880;2023-02-12T00:39:19;1034.76;;;7.125;33.557
73306;BME280;61530;51.158;0.880;2023-02-12T00:40:22;1034.78;;;7.125;33.4192
73306;BME280;61530;51.158;0.880;2023-02-12T00:41:27;1034.8;;;7.125;34.1229
73306;BME280;61530;51.158;0.880;2023-02-12T00:42:30;1034.81;;;7.125;33.8679
73306;BME280;61530;51.158;0.880;2023-02-12T00:43:35;1034.8;;;7.125;33.535
73306;BME280;61530;51.158;0.880;2023-02-12T00:44:38;1034.84;;;7.125;33.3239
73306;BME280;61530;51.158;0.880;2023-02-12T00:45:44;1034.85;;;7.125;33.3854
73306;BME280;61530;51.158;0.880;2023-02-12T00:46:46;1034.84;;;7.0625;32.548
73306;BME280;61530;51.158;0.880;2023-02-12T00:47:51;1034.86;;;7.125;33.4147
73306;BME280;61530;51.158;0.880;2023-02-12T00:48:54;1034.81;;;7.0625;33.4857
73306;BME280;61530;51.158;0.880;2023-02-12T00:49:59;1034.83;;;7.125;33.6314
73306;BME280;61530;51.158;0.880;2023-02-12T00:51:03;1034.82;;;7.125;34.1408
73306;BME280;61530;51.158;0.880;2023-02-12T00:52:07;1034.85;;;7.0625;33.4097
73306;BME280;61530;51.158;0.880;2023-02-12T00:53:10;1034.86;;;7.125;33.2353
73306;BME280;61530;51.158;0.880;2023-02-12T00:54:15;1034.89;;;7.125;33.5655
73306;BME280;61530;51.158;0.880;2023-02-12T00:55:19;1034.86;;;7.125;33.5784
73306;BME280;61530;51.158;0.880;2023-02-12T00:56:23;1034.85;;;7.125;33.1891
73306;BME280;61530;51.158;0.880;2023-02-12T00:57:26;1034.86;;;7.0625;33.8401
73306;BME280;61530;51.158;0.880;2023-02-12T00:58:31;1034.85;;;7.125;33.8568
73306;BME280;61530;51.158;0.880;2023-02-12T00:59:34;1034.85;;;7.125;34.0751
73306;BME280;61530;51.158;0.880;2023-02-12T01:00:39;1034.84;;;7.0625;33.9905
73306;BME280;61530;51.158;0.880;2023-02-12T01:01:42;1034.85;;;7.0625;34.1123
73306;BME280;61530;51.158;0.880;2023-02-12T01:02:47;1034.84;;;7.0625;34.5962
73306;BME280;61530;51.158;0.880;2023-02-12T01:03:50;1034.88;;;7.0625;34.332
73306;BME280;61530;51.158;0.880;2023-02-12T01:04:55;1034.85;;;7.0625;34.8443
73306;BME280;61530;51.158;0.880;2023-02-12T01:05:58;1034.88;;;7.0625;33.5315
73306;BME280;61530;51.158;0.880;2023-02-12T01:07:03;1034.85;;;7.0625;32.6764
73306;BME280;61530;51.158;0.880;2023-02-12T01:08:06;1034.86;;;7.0;33.7573
73306;BME280;61530;51.158;0.880;2023-02-12T01:09:11;1034.82;;;7.0;33.9262
73306;BME280;61530;51.158;0.880;2023-02-12T01:10:17;1034.82;;;7.0625;33.8504
73306;BME280;61530;51.158;0.880;2023-02-12T01:11:19;1034.8;;;7.0;33.7522
73306;BME280;61530;51.158;0.880;2023-02-12T01:12:22;1034.81;;;7.0625;33.7458
73306;BME280;61530;51.158;0.880;2023-02-12T01:13:28;1034.85;;;7.0;33.2776
73306;BME280;61530;51.158;0.880;2023-02-12T01:14:30;1034.82;;;7.0;33.5156
73306;BME280;61530;51.158;0.880;2023-02-12T01:15:35;1034.83;;;7.0;33.191
73306;BME280;61530;51.158;0.880;2023-02-12T01:16:38;1034.82;;;7.0;33.451
73306;BME280;61530;51.158;0.880;2023-02-12T01:17:43;1034.8;;;7.0;33.7927
73306;BME280;61530;51.158;0.880;2023-02-12T01:18:47;1034.84;;;7.0;33.4232
73306;BME280;61530;51.158;0.880;2023-02-12T01:19:56;1034.84;;;6.9375;33.5334
73306;BME280;61530;51.158;0.880;2023-02-12T01:20:54;1034.83;;;6.9375;33.0505
73306;BME280;61530;51.158;0.880;2023-02-12T01:21:59;1034.82;;;6.9375;33.4424
73306;BME280;61530;51.158;0.880;2023-02-12T01:23:02;1034.78;;;6.9375;33.6371
73306;BME280;61530;51.158;0.880;2023-02-12T01:24:07;1034.77;;;6.875;33.0797
73306;BME280;61530;51.158;0.880;2023-02-12T01:25:11;1034.75;;;7.0;33.7759
73306;BME280;61530;51.158;0.880;2023-02-12T01:26:16;1034.76;;;6.9375;33.9378
73306;BME280;61530;51.158;0.880;2023-02-12T01:27:18;1034.76;;;7.0;33.921
73306;BME280;61530;51.158;0.880;2023-02-12T01:28:23;1034.75;;;7.0;34.1982
73306;BME280;61530;51.158;0.880;2023-02-12T01:29:26;1034.77;;;7.0;33.4728
73306;BME280;61530;51.158;0.880;2023-02-12T01:30:31;1034.77;;;7.0;33.4591
73306;BME280;61530;51.158;0.880;2023-02-12T01:31:37;1034.76;;;6.875;33.2908
73306;BME280;61530;51.158;0.880;2023-02-12T01:32:39;1034.74;;;6.875;33.0578
73306;BME280;61530;51.158;0.880;2023-02-12T01:33:43;1034.73;;;6.9375;33.5583
73306;BME280;61530;51.158;0.880;2023-02-12T01:34:47;1034.72;;;6.9375;33.5564
73306;BME280;61530;51.158;0.880;2023-02-12T01:35:50;1034.74;;;6.9375;33.6481
73306;BME280;61530;51.158;0.880;2023-02-12T01:36:55;1034.73;;;6.9375;32.279
73306;BME280;61530;51.158;0.880;2023-02-12T01:37:58;1034.76;;;6.875;33.6104
73306;BME280;61530;51.158;0.880;2023-02-12T01:39:04;1034.77;;;6.875;33.3671
73306;BME280;61530;51.158;0.880;2023-02-12T01:40:08;1034.77;;;6.8125;34.2333
73306;BME280;61530;51.158;0.880;2023-02-12T01:41:13;1034.77;;;6.75;33.6804
73306;BME280;61530;51.158;0.880;2023-02-12T01:42:15;1034.74;;;6.75;33.4539
73306;BME280;61530;51.158;0.880;2023-02-12T01:43:19;1034.74;;;6.6875;32.9342
73306;BME280;61530;51.158;0.880;2023-02-12T01:44:24;1034.72;;;6.75;33.0081
73306;BME280;61530;51.158;0.880;2023-02-12T01:46:00;1034.71;;;6.6875;33.1529
73306;BME280;61530;51.158;0.880;2023-02-12T01:46:30;1034.7;;;6.75;33.5121
73306;BME280;61530;51.158;0.880;2023-02-12T01:47:35;1034.65;;;6.8125;33.8825
73306;BME280;61530;51.158;0.880;2023-02-12T01:48:41;1034.69;;;6.75;33.7492
73306;BME280;61530;51.158;0.880;2023-02-12T01:49:45;1034.7;;;6.875;33.4313
73306;BME280;61530;51.158;0.880;2023-02-12T01:50:48;1034.68;;;6.8125;33.697
73306;BME280;61530;51.158;0.880;2023-02-12T01:51:53;1034.69;;;6.75;34.1629
73306;BME280;61530;51.158;0.880;2023-02-12T01:52:57;1034.7;;;6.75;33.7553
73306;BME280;61530;51.158;0.880;2023-02-12T01:54:04;1034.74;;;6.8125;33.1805
73306;BME280;61530;51.158;0.880;2023-02-12T01:55:05;1034.71;;;6.75;33.7702
73306;BME280;61530;51.158;0.880;2023-02-12T01:56:07;1034.7;;;6.8125;33.3526
73306;BME280;61530;51.158;0.880;2023-02-12T01:57:11;1034.71;;;6.75;33.8724
73306;BME280;61530;51.158;0.880;2023-02-12T01:58:15;1034.68;;;6.875;34.0032
73306;BME280;61530;51.158;0.880;2023-02-12T01:59:19;1034.69;;;6.875;33.5651
73306;BME280;61530;51.158;0.880;2023-02-12T02:00:24;1034.68;;;6.875;33.7059
73306;BME280;61530;51.158;0.880;2023-02-12T02:01:28;1034.69;;;6.8125;33.9187
73306;BME280;61530;51.158;0.880;2023-02-12T02:02:31;1034.72;;;6.75;33.5229
73306;BME280;61530;51.158;0.880;2023-02-12T02:03:37;1034.75;;;6.875;33.2322
73306;BME280;61530;51.158;0.880;2023-02-12T02:04:42;1034.72;;;6.875;32.965
73306;BME280;61530;51.158;0.880;2023-02-12T02:05:46;1034.67;;;6.875;33.6492
73306;BME280;61530;51.158;0.880;2023-02-12T02:06:51;1034.68;;;6.9375;33.4537
73306;BME280;61530;51.158;0.880;2023-02-12T02:07:52;1034.68;;;6.875;33.4237
73306;BME280;61530;51.158;0.880;2023-02-12T02:08:56;1034.68;;;6.875;33.7069
73306;BME280;61530;51.158;0.880;2023-02-12T02:09:59;1034.67;;;6.9375;33.9219
73306;BME280;61530;51.158;0.880;2023-02-12T02:11:03;1034.69;;;6.875;33.3688
73306;BME280;61530;51.158;0.880;2023-02-12T02:12:07;1034.68;;;6.875;33.7246
73306;BME280;61530;51.158;0.880;2023-02-12T02:13:11;1034.68;;;6.9375;33.6951
73306;BME280;61530;51.158;0.880;2023-02-12T02:14:14;1034.7;;;6.875;34.3613
73306;BME280;61530;51.158;0.880;2023-02-12T02:15:19;1034.68;;;6.875;33.5503
73306;BME280;61530;51.158;0.880;2023-02-12T02:16:25;1034.64;;;6.9375;33.6377
73306;BME280;61530;51.158;0.880;2023-02-12T02:17:39;1034.66;;;6.875;33.3714
73306;BME280;61530;51.158;0.880;2023-02-12T02:18:35;1034.6;;;6.875;33.6606
73306;BME280;61530;51.158;0.880;2023-02-12T02:19:54;1034.63;;;6.9375;33.5681
73306;BME280;61530;51.158;0.880;2023-02-12T02:20:54;1034.63;;;6.9375;33.7882
73306;BME280;61530;51.158;0.880;2023-02-12T02:22:30;1034.63;;;6.9375;33.6376
73306;BME280;61530;51.158;0.880;2023-02-12T02:22:51;1034.63;;;7.0;33.8692
73306;BME280;61530;51.158;0.880;2023-02-12T02:24:04;1034.63;;;7.0;34.3125
73306;BME280;61530;51.158;0.880;2023-02-12T02:25:33;1034.63;;;7.0;33.973
73306;BME280;61530;51.158;0.880;2023-02-12T02:26:49;1034.63;;;6.9375;33.9906
73306;BME280;61530;51.158;0.880;2023-02-12T02:27:14;1034.65;;;6.875;33.1096
73306;BME280;61530;51.158;0.880;2023-02-12T02:28:18;1034.65;;;6.9375;33.7896
73306;BME280;61530;51.158;0.880;2023-02-12T02:29:25;1034.67;;;6.875;33.5219
73306;BME280;61530;51.158;0.880;2023-02-12T02:30:29;1034.71;;;6.875;33.9684
73306;BME280;61530;51.158;0.880;2023-02-12T02:31:24;1034.67;;;6.875;33.4175
73306;BME280;61530;51.158;0.880;2023-02-12T02:32:25;1034.67;;;6.8125;33.845
73306;BME280;61530;51.158;0.880;2023-02-12T02:33:35;1034.67;;;6.875;33.4987
73306;BME280;61530;51.158;0.880;2023-02-12T02:34:37;1034.65;;;6.875;33.2333
73306;BME280;61530;51.158;0.880;2023-02-12T02:35:40;1034.65;;;6.875;33.2139
73306;BME280;61530;51.158;0.880;2023-02-12T02:36:43;1034.64;;;6.9375;33.2031
73306;BME280;61530;51.158;0.880;2023-02-12T02:37:48;1034.61;;;6.9375;32.9937
73306;BME280;61530;51.158;0.880;2023-02-12T02:38:50;1034.6;;;7.0;33.0568
73306;BME280;61530;51.158;0.880;2023-02-12T02:39:53;1034.6;;;6.9375;33.0569
73306;BME280;61530;51.158;0.880;2023-02-12T02:41:01;1034.59;;;6.9375;32.8999
73306;BME280;61530;51.158;0.880;2023-02-12T02:42:04;1034.59;;;6.9375;33.2825
73306;BME280;61530;51.158;0.880;2023-02-12T02:43:06;1034.61;;;6.9375;33.3115
73306;BME280;61530;51.158;0.880;2023-02-12T02:44:12;1034.59;;;6.9375;33.4388
73306;BME280;61530;51.158;0.880;2023-02-12T02:45:14;1034.57;;;6.9375;33.9232
73306;BME280;61530;51.158;0.880;2023-02-12T02:46:20;1034.57;;;7.0;33.7403
73306;BME280;61530;51.158;0.880;2023-02-12T02:47:23;1034.56;;;6.9375;32.958
73306;BME280;61530;51.158;0.880;2023-02-12T02:48:26;1034.57;;;6.9375;33.2555
73306;BME280;61530;51.158;0.880;2023-02-12T02:49:32;1034.57;;;6.875;33.1216
73306;BME280;61530;51.158;0.880;2023-02-12T02:50:34;1034.58;;;6.875;33.0412
73306;BME280;61530;51.158;0.880;2023-02-12T02:51:39;1034.6;;;6.875;33.0
73306;BME280;61530;51.158;0.880;2023-02-12T02:52:42;1034.59;;;6.9375;32.9346
73306;BME280;61530;51.158;0.880;2023-02-12T02:53:47;1034.63;;;6.875;33.2186
73306;BME280;61530;51.158;0.880;2023-02-12T02:54:49;1034.62;;;7.0;33.463
73306;BME280;61530;51.158;0.880;2023-02-12T02:55:53;1034.63;;;6.9375;33.4278
73306;BME280;61530;51.158;0.880;2023-02-12T02:56:57;1034.64;;;6.9375;33.6108
73306;BME280;61530;51.158;0.880;2023-02-12T02:58:03;1034.61;;;6.9375;33.8533
73306;BME280;61530;51.158;0.880;2023-02-12T02:59:05;1034.58;;;6.9375;33.8548
73306;BME280;61530;51.158;0.880;2023-02-12T03:00:13;1034.6;;;7.0;33.3691
73306;BME280;61530;51.158;0.880;2023-02-12T03:01:14;1034.6;;;6.9375;33.4037
73306;BME280;61530;51.158;0.880;2023-02-12T03:02:19;1034.55;;;6.9375;33.4049
73306;BME280;61530;51.158;0.880;2023-02-12T03:03:22;1034.58;;;6.9375;33.2256
73306;BME280;61530;51.158;0.880;2023-02-12T03:04:28;1034.6;;;7.0;33.352
73306;BME280;61530;51.158;0.880;2023-02-12T03:05:30;1034.58;;;7.0;33.4511
73306;BME280;61530;51.158;0.880;2023-02-12T03:06:36;1034.58;;;6.9375;33.6598
73306;BME280;61530;51.158;0.880;2023-02-12T03:07:37;1034.55;;;6.875;33.5232
73306;BME280;61530;51.158;0.880;2023-02-12T03:08:41;1034.57;;;6.875;33.9072
73306;BME280;61530;51.158;0.880;2023-02-12T03:09:46;1034.53;;;6.8125;33.7325
73306;BME280;61530;51.158;0.880;2023-02-12T03:10:51;1034.53;;;6.8125;34.1846
73306;BME280;61530;51.158;0.880;2023-02-12T03:11:54;1034.5;;;6.875;33.6788
73306;BME280;61530;51.158;0.880;2023-02-12T03:13:01;1034.49;;;6.875;33.9878
73306;BME280;61530;51.158;0.880;2023-02-12T03:14:03;1034.53;;;6.8125;33.7706
73306;BME280;61530;51.158;0.880;2023-02-12T03:15:08;1034.58;;;6.8125;33.3888
73306;BME280;61530;51.158;0.880;2023-02-12T03:16:10;1034.54;;;6.75;32.6616
73306;BME280;61530;51.158;0.880;2023-02-12T03:17:15;1034.56;;;6.75;34.0845
73306;BME280;61530;51.158;0.880;2023-02-12T03:18:18;1034.57;;;6.6875;34.1558
73306;BME280;61530;51.158;0.880;2023-02-12T03:19:23;1034.55;;;6.6875;34.1444
73306;BME280;61530;51.158;0.880;2023-02-12T03:20:27;1034.54;;;6.6875;33.9541
73306;BME280;61530;51.158;0.880;2023-02-12T03:21:29;1034.51;;;6.75;34.1647
73306;BME280;61530;51.158;0.880;2023-02-12T03:22:33;1034.5;;;6.75;33.6047
73306;BME280;61530;51.158;0.880;2023-02-12T03:23:38;1034.52;;;6.75;33.2912
73306;BME280;61530;51.158;0.880;2023-02-12T03:24:42;1034.54;;;6.875;33.6954
73306;BME280;61530;51.158;0.880;2023-02-12T03:25:48;1034.52;;;6.875;33.9504
73306;BME280;61530;51.158;0.880;2023-02-12T03:26:50;1034.51;;;6.875;33.9679
73306;BME280;61530;51.158;0.880;2023-02-12T03:27:57;1034.5;;;6.8125;34.0954
73306;BME280;61530;51.158;0.880;2023-02-12T03:28:54;1034.48;;;6.875;33.7851
73306;BME280;61530;51.158;0.880;2023-02-12T03:29:59;1034.49;;;6.875;34.2161
73306;BME280;61530;51.158;0.880;2023-02-12T03:31:07;1034.53;;;6.875;33.9372
73306;BME280;61530;51.158;0.880;2023-02-12T03:32:15;1034.52;;;6.875;33.8447
73306;BME280;61530;51.158;0.880;2023-02-12T03:33:18;1034.54;;;6.875;33.5661
73306;BME280;61530;51.158;0.880;2023-02-12T03:34:21;1034.53;;;6.875;33.7175
73306;BME280;61530;51.158;0.880;2023-02-12T03:35:21;1034.54;;;6.875;33.3135
73306;BME280;61530;51.158;0.880;2023-02-12T03:36:29;1034.54;;;6.9375;32.5925
73306;BME280;61530;51.158;0.880;2023-02-12T03:37:30;1034.56;;;6.8125;33.1969
73306;BME280;61530;51.158;0.880;2023-02-12T03:38:37;1034.56;;;6.8125;33.2461
73306;BME280;61530;51.158;0.880;2023-02-12T03:39:42;1034.56;;;6.75;33.3605
73306;BME280;61530;51.158;0.880;2023-02-12T03:40:42;1034.54;;;6.75;32.8405
73306;BME280;61530;51.158;0.880;2023-02-12T03:41:46;1034.56;;;6.625;33.6372
73306;BME280;61530;51.158;0.880;2023-02-12T03:42:54;1034.58;;;6.6875;33.8775
73306;BME280;61530;51.158;0.880;2023-02-12T03:43:54;1034.55;;;6.625;34.901
73306;BME280;61530;51.158;0.880;2023-02-12T03:44:58;1034.52;;;6.6875;34.7036
73306;BME280;61530;51.158;0.880;2023-02-12T03:46:02;1034.49;;;6.625;34.6107
73306;BME280;61530;51.158;0.880;2023-02-12T03:47:08;1034.49;;;6.625;34.7253
73306;BME280;61530;51.158;0.880;2023-02-12T03:48:10;1034.55;;;6.6875;34.2418
73306;BME280;61530;51.158;0.880;2023-02-12T03:49:19;1034.55;;;6.6875;33.3299
73306;BME280;61530;51.158;0.880;2023-02-12T03:50:18;1034.54;;;6.75;34.3534
73306;BME280;61530;51.158;0.880;2023-02-12T03:51:22;1034.53;;;6.75;34.3504
73306;BME280;61530;51.158;0.880;2023-02-12T03:52:22;1034.53;;;6.6875;34.5061
73306;BME280;61530;51.158;0.880;2023-02-12T03:53:28;1034.54;;;6.8125;34.3101
73306;BME280;61530;51.158;0.880;2023-02-12T03:54:31;1034.56;;;6.8125;33.6527
73306;BME280;61530;51.158;0.880;2023-02-12T03:55:39;1034.56;;;6.75;34.1088
73306;BME280;61530;51.158;0.880;2023-02-12T03:56:43;1034.57;;;6.8125;33.9876
73306;BME280;61530;51.158;0.880;2023-02-12T03:57:45;1034.55;;;6.6875;33.8708
73306;BME280;61530;51.158;0.880;2023-02-12T03:58:46;1034.58;;;6.625;34.3835
73306;BME280;61530;51.158;0.880;2023-02-12T03:59:51;1034.57;;;6.6875;34.0495
73306;BME280;61530;51.158;0.880;2023-02-12T04:00:54;1034.57;;;6.6875;34.0887
73306;BME280;61530;51.158;0.880;2023-02-12T04:01:59;1034.61;;;6.75;33.6498
73306;BME280;61530;51.158;0.880;2023-02-12T04:03:03;1034.61;;;6.75;33.5905
73306;BME280;61530;51.158;0.880;2023-02-12T04:04:08;1034.62;;;6.8125;33.0705
73306;BME280;61530;51.158;0.880;2023-02-12T04:05:17;1034.62;;;6.75;33.8092
73306;BME280;61530;51.158;0.880;2023-02-12T04:06:19;1034.64;;;6.6875;33.3233
73306;BME280;61530;51.158;0.880;2023-02-12T04:07:18;1034.65;;;6.8125;33.6879
73306;BME280;61530;51.158;0.880;2023-02-12T04:08:23;1034.65;;;6.875;34.3375
73306;BME280;61530;51.158;0.880;2023-02-12T04:09:27;1034.67;;;6.875;33.7515
73306;BME280;61530;51.158;0.880;2023-02-12T04:10:36;1034.64;;;6.9375;33.9258
73306;BME280;61530;51.158;0.880;2023-02-12T04:11:45;1034.62;;;6.875;34.1167
73306;BME280;61530;51.158;0.880;2023-02-12T04:12:42;1034.58;;;6.8125;34.4389
73306;BME280;61530;51.158;0.880;2023-02-12T04:13:52;1034.61;;;6.875;34.203
73306;BME280;61530;51.158;0.880;2023-02-12T04:14:53;1034.6;;;6.875;34.0356
73306;BME280;61530;51.158;0.880;2023-02-12T04:16:00;1034.63;;;6.8125;33.781
73306;BME280;61530;51.158;0.880;2023-02-12T04:17:02;1034.59;;;6.875;34.0532
73306;BME280;61530;51.158;0.880;2023-02-12T04:18:05;1034.6;;;6.875;34.3772
73306;BME280;61530;51.158;0.880;2023-02-12T04:19:03;1034.59;;;6.875;34.6662
73306;BME280;61530;51.158;0.880;2023-02-12T04:20:16;1034.61;;;6.8125;34.1629
73306;BME280;61530;51.158;0.880;2023-02-12T04:21:20;1034.65;;;6.75;33.7283
73306;BME280;61530;51.158;0.880;2023-02-12T04:22:24;1034.63;;;6.8125;33.9885
73306;BME280;61530;51.158;0.880;2023-02-12T04:23:34;1034.63;;;6.875;34.4317
73306;BME280;61530;51.158;0.880;2023-02-12T04:24:30;1034.62;;;6.8125;33.7166
73306;BME280;61530;51.158;0.880;2023-02-12T04:25:42;1034.59;;;6.875;34.386
73306;BME280;61530;51.158;0.880;2023-02-12T04:26:39;1034.6;;;6.8125;34.2411
73306;BME280;61530;51.158;0.880;2023-02-12T04:27:40;1034.59;;;6.8125;33.8439
73306;BME280;61530;51.158;0.880;2023-02-12T04:28:45;1034.62;;;6.8125;33.9355
73306;BME280;61530;51.158;0.880;2023-02-12T04:29:48;1034.64;;;6.8125;34.3982
73306;BME280;61530;51.158;0.880;2023-02-12T04:30:54;1034.67;;;6.8125;34.294
73306;BME280;61530;51.158;0.880;2023-02-12T04:31:56;1034.71;;;6.75;33.7514
73306;BME280;61530;51.158;0.880;2023-02-12T04:32:59;1034.7;;;6.75;34.1092
73306;BME280;61530;51.158;0.880;2023-02-12T04:34:07;1034.7;;;6.75;34.4735
73306;BME280;61530;51.158;0.880;2023-02-12T04:35:07;1034.72;;;6.75;34.686
73306;BME280;61530;51.158;0.880;2023-02-12T04:36:12;1034.72;;;6.8125;34.5307
73306;BME280;61530;51.158;0.880;2023-02-12T04:37:15;1034.72;;;6.875;34.5539
73306;BME280;61530;51.158;0.880;2023-02-12T04:38:20;1034.76;;;6.75;33.7155
73306;BME280;61530;51.158;0.880;2023-02-12T04:39:20;1034.76;;;6.8125;34.1323
73306;BME280;61530;51.158;0.880;2023-02-12T04:40:23;1034.75;;;6.75;34.6295
73306;BME280;61530;51.158;0.880;2023-02-12T04:41:27;1034.75;;;6.8125;34.0633
73306;BME280;61530;51.158;0.880;2023-02-12T04:42:31;1034.76;;;6.8125;34.1663
73306;BME280;61530;51.158;0.880;2023-02-12T04:43:35;1034.77;;;6.875;34.3165
73306;BME280;61530;51.158;0.880;2023-02-12T04:44:41;1034.76;;;6.875;34.599
73306;BME280;61530;51.158;0.880;2023-02-12T04:45:42;1034.75;;;6.8125;34.778
73306;BME280;61530;51.158;0.880;2023-02-12T04:46:47;1034.78;;;6.875;34.7602
73306;BME280;61530;51.158;0.880;2023-02-12T04:47:50;1034.79;;;6.875;34.8946
73306;BME280;61530;51.158;0.880;2023-02-12T04:48:57;1034.77;;;6.8125;34.7114
73306;BME280;61530;51.158;0.880;2023-02-12T04:49:58;1034.77;;;6.8125;34.7681
73306;BME280;61530;51.158;0.880;2023-02-12T04:51:03;1034.71;;;6.75;34.699
73306;BME280;61530;51.158;0.880;2023-02-12T04:52:07;1034.73;;;6.8125;34.7969
73306;BME280;61530;51.158;0.880;2023-02-12T04:53:11;1034.73;;;6.875;35.0213
73306;BME280;61530;51.158;0.880;2023-02-12T04:54:16;1034.72;;;6.8125;35.0457
73306;BME280;61530;51.158;0.880;2023-02-12T04:55:19;1034.72;;;6.8125;35.1607
73306;BME280;61530;51.158;0.880;2023-02-12T04:56:22;1034.75;;;6.8125;35.1427
73306;BME280;61530;51.158;0.880;2023-02-12T04:57:27;1034.74;;;6.8125;35.5641
73306;BME280;61530;51.158;0.880;2023-02-12T04:58:30;1034.72;;;6.8125;35.7024
73306;BME280;61530;51.158;0.880;2023-02-12T04:59:35;1034.72;;;6.8125;35.9096
73306;BME280;61530;51.158;0.880;2023-02-12T05:00:38;1034.72;;;6.8125;35.7025
73306;BME280;61530;51.158;0.880;2023-02-12T05:01:44;1034.73;;;6.875;35.6268
73306;BME280;61530;51.158;0.880;2023-02-12T05:02:46;1034.72;;;6.8125;35.3279
73306;BME280;61530;51.158;0.880;2023-02-12T05:03:51;1034.75;;;6.875;34.6431
73306;BME280;61530;51.158;0.880;2023-02-12T05:04:54;1034.77;;;6.8125;34.3259
73306;BME280;61530;51.158;0.880;2023-02-12T05:06:02;1034.74;;;6.6875;33.2434
73306;BME280;61530;51.158;0.880;2023-02-12T05:07:02;1034.71;;;6.75;33.5452
73306;BME280;61530;51.158;0.880;2023-02-12T05:08:07;1034.74;;;6.6875;34.4418
73306;BME280;61530;51.158;0.880;2023-02-12T05:09:13;1034.73;;;6.6875;34.7695
73306;BME280;61530;51.158;0.880;2023-02-12T05:10:15;1034.67;;;6.625;35.4664
73306;BME280;61530;51.158;0.880;2023-02-12T05:11:18;1034.68;;;6.625;35.1324
73306;BME280;61530;51.158;0.880;2023-02-12T05:12:23;1034.68;;;6.75;34.9298
73306;BME280;61530;51.158;0.880;2023-02-12T05:13:26;1034.69;;;6.625;35.2176
73306;BME280;61530;51.158;0.880;2023-02-12T05:14:31;1034.69;;;6.75;35.1992
73306;BME280;61530;51.158;0.880;2023-02-12T05:15:37;1034.66;;;6.6875;34.7609
73306;BME280;61530;51.158;0.880;2023-02-12T05:16:39;1034.66;;;6.6875;34.6294
73306;BME280;61530;51.158;0.880;2023-02-12T05:17:42;1034.67;;;6.625;35.2554
73306;BME280;61530;51.158;0.880;2023-02-12T05:18:47;1034.64;;;6.75;34.7205
73306;BME280;61530;51.158;0.880;2023-02-12T05:19:51;1034.65;;;6.6875;34.3626
73306;BME280;61530;51.158;0.880;2023-02-12T05:20:56;1034.62;;;6.75;35.3887
73306;BME280;61530;51.158;0.880;2023-02-12T05:21:58;1034.63;;;6.6875;35.0543
73306;BME280;61530;51.158;0.880;2023-02-12T05:23:03;1034.63;;;6.75;34.8476
73306;BME280;61530;51.158;0.880;2023-02-12T05:24:07;1034.65;;;6.8125;35.2577
73306;BME280;61530;51.158;0.880;2023-02-12T05:25:11;1034.65;;;6.75;35.5297
73306;BME280;61530;51.158;0.880;2023-02-12T05:26:18;1034.66;;;6.875;36.1152
73306;BME280;61530;51.158;0.880;2023-02-12T05:27:19;1034.62;;;6.75;35.6492
73306;BME280;61530;51.158;0.880;2023-02-12T05:28:22;1034.61;;;6.75;34.8013
73306;BME280;61530;51.158;0.880;2023-02-12T05:29:27;1034.63;;;6.75;34.8881
73306;BME280;61530;51.158;0.880;2023-02-12T05:30:30;1034.62;;;6.75;35.0961
73306;BME280;61530;51.158;0.880;2023-02-12T05:31:35;1034.6;;;6.75;35.4534
73306;BME280;61530;51.158;0.880;2023-02-12T05:32:38;1034.6;;;6.8125;35.7023
73306;BME280;61530;51.158;0.880;2023-02-12T05:33:43;1034.59;;;6.75;34.9309
73306;BME280;61530;51.158;0.880;2023-02-12T05:34:46;1034.59;;;6.75;35.9875